Time;durP1;ratioP1;P1;durP2;ratioP2;P2;SDS_P1;SDS_P2;PMS_P1;PMS_P2;Temp;Humidity;BMP_temperature;BMP_pressure;BME280_temperature;BME280_humidity;BME280_pressure;Samples;Min_cycle;Max_cycle;Signal;HPM_P1;HPM_P2
2021/01/12 00:02:20;;;;;;;31.77;17.57;;;;;;;0.47;72.40;100183.64;1759992;80;21183;-57
2021/01/12 00:04:48;;;;;;;26.77;15.83;;;;;;;0.48;72.37;100183.20;1762730;80;21815;-59
2021/01/12 00:07:21;;;;;;;29.67;15.77;;;;;;;0.47;72.39;100184.08;1762854;80;21148;-59
2021/01/12 00:09:50;;;;;;;31.07;17.23;;;;;;;0.47;72.48;100189.38;1761524;80;20985;-58
2021/01/12 00:12:20;;;;;;;35.67;17.93;;;;;;;0.47;72.56;100180.11;1760601;79;21662;-58
2021/01/12 00:14:47;;;;;;;31.93;17.90;;;;;;;0.46;72.44;100187.17;1761005;80;21179;-59
2021/01/12 00:17:14;;;;;;;28.73;16.80;;;;;;;0.46;72.52;100186.29;1702931;82;22240;-59
2021/01/12 00:19:42;;;;;;;30.50;16.77;;;;;;;0.45;72.58;100190.70;1730515;81;21271;-58
2021/01/12 00:22:14;;;;;;;29.60;16.53;;;;;;;0.44;72.62;100190.26;1726891;81;21142;-58
2021/01/12 00:24:46;;;;;;;31.80;17.33;;;;;;;0.45;72.49;100191.14;1759978;80;21095;-59
2021/01/12 00:27:16;;;;;;;29.50;16.10;;;;;;;0.45;72.52;100192.03;1759562;80;21179;-57
2021/01/12 00:29:43;;;;;;;33.77;17.87;;;;;;;0.46;72.58;100188.50;1725513;81;21545;-58
2021/01/12 00:32:24;;;;;;;32.40;16.63;;;;;;;0.46;72.63;100192.91;1699000;82;21258;-58
2021/01/12 00:34:53;;;;;;;30.57;16.03;;;;;;;0.47;72.64;100196.89;1761357;80;21183;-58
2021/01/12 00:37:23;;;;;;;26.23;15.10;;;;;;;0.47;72.76;100188.06;1759626;80;21903;-58
2021/01/12 00:39:50;;;;;;;24.90;14.50;;;;;;;0.48;72.73;100193.36;1762816;80;21143;-58
2021/01/12 00:42:18;;;;;;;28.80;16.67;;;;;;;0.45;72.81;100182.76;1758400;80;21186;-58
2021/01/12 00:44:46;;;;;;;30.40;16.47;;;;;;;0.45;72.83;100185.84;1758374;80;21196;-57
2021/01/12 00:47:13;;;;;;;26.17;15.87;;;;;;;0.44;72.87;100179.66;1760949;80;21422;-58
2021/01/12 00:49:41;;;;;;;28.13;15.33;;;;;;;0.43;72.92;100179.66;1761962;80;21099;-57
2021/01/12 00:52:10;;;;;;;26.80;14.53;;;;;;;0.42;72.92;100170.86;1762806;80;21135;-58
2021/01/12 00:54:39;;;;;;;25.00;13.90;;;;;;;0.42;72.91;100177.48;1760402;80;21123;-58
2021/01/12 00:57:06;;;;;;;25.00;14.97;;;;;;;0.39;72.91;100178.80;1759718;80;21172;-58
2021/01/12 00:59:33;;;;;;;24.07;13.23;;;;;;;0.41;72.79;100182.77;1764313;80;21317;-58
2021/01/12 01:02:03;;;;;;;29.77;15.93;;;;;;;0.39;72.70;100181.45;1764065;80;21118;-58
2021/01/12 01:04:30;;;;;;;24.87;14.77;;;;;;;0.39;72.56;100174.83;1762992;80;21113;-58
2021/01/12 01:06:57;;;;;;;27.63;15.20;;;;;;;0.40;72.37;100175.71;1762986;80;21471;-58
2021/01/12 01:10:39;;;;;;;24.60;13.40;;;;;;;0.44;72.29;100176.13;1867639;75;27276;-58
2021/01/12 01:13:06;;;;;;;25.60;14.17;;;;;;;0.39;72.29;100178.80;1844942;76;21476;-58
2021/01/12 01:15:35;;;;;;;26.73;14.80;;;;;;;0.38;72.34;100177.91;1844195;76;21547;-58
2021/01/12 01:18:02;;;;;;;28.03;15.27;;;;;;;0.38;72.34;100179.23;1839041;76;21010;-58
2021/01/12 01:20:29;;;;;;;21.90;13.53;;;;;;;0.38;72.29;100179.23;1842843;76;21031;-57
2021/01/12 01:22:56;;;;;;;21.17;12.93;;;;;;;0.36;72.36;100178.34;1843334;76;20944;-57
2021/01/12 01:25:24;;;;;;;19.27;11.07;;;;;;;0.37;72.33;100184.09;1841554;76;21087;-58
2021/01/12 01:27:52;;;;;;;10.27;6.07;;;;;;;0.37;72.03;100187.17;1844293;76;22130;-58
2021/01/12 01:30:20;;;;;;;12.50;9.17;;;;;;;0.37;70.69;100190.70;1842345;76;20988;-57
2021/01/12 01:32:47;;;;;;;16.40;9.87;;;;;;;0.38;70.09;100185.86;1840764;76;21119;-57
2021/01/12 01:35:15;;;;;;;14.80;8.93;;;;;;;0.38;69.81;100181.88;1844431;76;22135;-59
2021/01/12 01:37:44;;;;;;;14.67;9.63;;;;;;;0.40;69.66;100177.03;1839620;76;21926;-58
2021/01/12 01:40:11;;;;;;;17.77;9.00;;;;;;;0.38;69.54;100175.27;1844091;76;21452;-58
2021/01/12 01:42:39;;;;;;;14.83;9.13;;;;;;;0.36;69.51;100176.14;1842496;76;21221;-57
2021/01/12 01:45:09;;;;;;;16.17;10.10;;;;;;;0.36;69.30;100173.05;1846171;75;21817;-59
2021/01/12 01:47:36;;;;;;;19.53;11.17;;;;;;;0.37;69.29;100177.47;1847183;76;21675;-58
2021/01/12 01:50:04;;;;;;;19.70;11.97;;;;;;;0.37;69.25;100170.84;1843554;75;21087;-58
2021/01/12 01:52:31;;;;;;;20.27;11.57;;;;;;;0.38;69.30;100169.97;1846876;76;21194;-58
2021/01/12 01:54:58;;;;;;;15.30;9.97;;;;;;;0.40;69.24;100170.41;1845940;76;21108;-57
2021/01/12 01:57:25;;;;;;;14.33;9.03;;;;;;;0.40;68.94;100175.71;1843143;76;21182;-58
2021/01/12 01:59:53;;;;;;;15.00;8.80;;;;;;;0.40;68.72;100168.65;1841555;76;21882;-58
2021/01/12 02:02:20;;;;;;;14.17;8.50;;;;;;;0.41;68.55;100168.20;1775879;78;21510;-57
2021/01/12 02:04:47;;;;;;;18.50;10.73;;;;;;;0.42;68.28;100173.95;1779979;79;21353;-58
2021/01/12 02:07:15;;;;;;;15.07;9.60;;;;;;;0.44;68.19;100169.07;1781463;79;21269;-57
2021/01/12 02:09:49;;;;;;;18.57;10.87;;;;;;;0.44;68.12;100165.53;1780884;78;21167;-57
2021/01/12 02:14:51;;;;;;;13.13;8.57;;;;;;;0.48;67.85;100159.37;1861141;75;26934;-58
2021/01/12 02:17:18;;;;;;;12.33;7.60;;;;;;;0.44;67.69;100162.89;1834830;76;21155;-58
2021/01/12 02:19:50;;;;;;;14.97;9.17;;;;;;;0.45;67.61;100159.36;1836616;76;21414;-58
2021/01/12 02:22:22;;;;;;;17.30;10.17;;;;;;;0.45;67.39;100158.03;1829775;76;21496;-58
2021/01/12 02:24:50;;;;;;;14.93;9.53;;;;;;;0.44;67.27;100151.86;1780353;78;21174;-58
2021/01/12 02:27:22;;;;;;;14.47;8.03;;;;;;;0.45;67.24;100143.47;1777111;78;21596;-58
2021/01/12 02:29:50;;;;;;;17.13;10.07;;;;;;;0.44;67.23;100144.34;1762573;79;22306;-58
2021/01/12 02:32:20;;;;;;;11.37;7.20;;;;;;;0.44;67.00;100142.58;1787867;78;21513;-57
2021/01/12 02:34:48;;;;;;;15.10;7.70;;;;;;;0.44;66.70;100140.38;1780063;78;20976;-58
2021/01/12 02:37:16;;;;;;;13.40;7.60;;;;;;;0.43;66.66;100131.55;1802347;78;21557;-59
2021/01/12 02:39:45;;;;;;;15.67;7.77;;;;;;;0.43;66.59;100134.20;1783260;78;21194;-58
2021/01/12 02:42:16;;;;;;;13.67;8.03;;;;;;;0.42;66.56;100125.84;1716643;80;21128;-58
2021/01/12 02:44:44;;;;;;;15.57;8.47;;;;;;;0.44;66.44;100125.81;1770283;78;21212;-58
2021/01/12 02:47:11;;;;;;;15.40;9.30;;;;;;;0.43;66.44;100123.60;1765163;79;21206;-58
2021/01/12 02:49:40;;;;;;;12.97;8.03;;;;;;;0.44;66.33;100127.13;1763636;79;21163;-58
2021/01/12 02:52:08;;;;;;;12.70;8.33;;;;;;;0.44;66.48;100122.72;1762242;79;21172;-58
2021/01/12 02:54:35;;;;;;;14.73;9.00;;;;;;;0.45;66.48;100123.61;1759872;79;21609;-58
2021/01/12 02:59:24;;;;;;;13.50;8.60;;;;;;;0.48;66.58;100113.02;1864053;75;26763;-58
2021/01/12 03:01:51;;;;;;;13.03;8.73;;;;;;;0.42;66.58;100118.34;1839049;76;21241;-58
2021/01/12 03:04:19;;;;;;;14.43;8.53;;;;;;;0.42;66.71;100104.66;1839471;76;21469;-58
2021/01/12 03:06:46;;;;;;;15.40;8.63;;;;;;;0.42;66.48;100109.95;1837159;76;22086;-58
2021/01/12 03:09:13;;;;;;;14.70;8.30;;;;;;;0.40;66.12;100115.69;1839934;76;21158;-59
2021/01/12 03:11:40;;;;;;;14.53;8.67;;;;;;;0.42;66.04;100110.39;1839150;76;21812;-59
2021/01/12 03:14:08;;;;;;;13.30;8.27;;;;;;;0.42;65.98;100104.66;1801116;78;21203;-58
2021/01/12 03:16:35;;;;;;;13.07;6.93;;;;;;;0.43;65.97;100101.53;1800594;78;21739;-58
2021/01/12 03:19:03;;;;;;;16.10;7.63;;;;;;;0.43;65.96;100103.73;1798524;78;21170;-58
2021/01/12 03:21:32;;;;;;;10.97;7.40;;;;;;;0.42;65.84;100100.68;1804077;78;21001;-58
2021/01/12 03:23:59;;;;;;;13.57;7.07;;;;;;;0.43;65.68;100099.77;1763703;79;21104;-56
2021/01/12 03:26:26;;;;;;;16.00;8.00;;;;;;;0.43;65.78;100102.41;1779106;79;21501;-59
2021/01/12 03:28:54;;;;;;;9.50;7.20;;;;;;;0.45;65.77;100103.30;1773371;79;21395;-59
2021/01/12 03:31:21;;;;;;;13.37;7.67;;;;;;;0.44;65.76;100102.86;1777441;79;21226;-58
2021/01/12 03:33:48;;;;;;;10.93;6.83;;;;;;;0.44;65.63;100096.67;1772278;79;21206;-59
2021/01/12 03:36:15;;;;;;;11.63;6.77;;;;;;;0.43;65.58;100098.44;1776182;79;21691;-59
2021/01/12 03:38:42;;;;;;;12.33;7.57;;;;;;;0.42;65.61;100091.41;1775409;79;21199;-58
2021/01/12 03:41:10;;;;;;;12.47;7.23;;;;;;;0.42;65.51;100086.12;1776260;79;21837;-59
2021/01/12 03:43:37;;;;;;;15.40;7.93;;;;;;;0.42;65.37;100079.94;1779803;79;21590;-59
2021/01/12 03:46:04;;;;;;;16.83;9.53;;;;;;;0.40;65.40;100079.94;1779253;79;21167;-63
2021/01/12 03:48:31;;;;;;;14.17;7.93;;;;;;;0.40;65.42;100075.96;1804586;77;21166;-58
2021/01/12 03:50:59;;;;;;;16.03;8.77;;;;;;;0.38;65.52;100073.75;1808881;77;21179;-58
2021/01/12 03:53:26;;;;;;;15.93;9.97;;;;;;;0.39;65.64;100068.90;1775697;78;21261;-59
2021/01/12 03:55:53;;;;;;;21.90;11.47;;;;;;;0.37;65.89;100062.27;1776956;78;21181;-58
2021/01/12 03:58:20;;;;;;;19.83;11.63;;;;;;;0.37;66.17;100066.25;1803042;78;22583;-59
2021/01/12 04:00:47;;;;;;;17.93;11.10;;;;;;;0.35;66.38;100060.06;1774538;78;21228;-58
2021/01/12 04:03:15;;;;;;;20.07;11.03;;;;;;;0.34;66.58;100063.59;1780327;78;21148;-59
2021/01/12 04:05:42;;;;;;;22.73;11.83;;;;;;;0.32;66.83;100057.45;1775953;78;21350;-59
2021/01/12 04:08:10;;;;;;;18.33;11.50;;;;;;;0.33;67.17;100063.63;1761433;78;21226;-59
2021/01/12 04:10:38;;;;;;;25.87;13.30;;;;;;;0.32;67.47;100057.45;1810282;77;21091;-60
2021/01/12 04:13:05;;;;;;;22.47;12.80;;;;;;;0.31;67.69;100054.35;1807746;77;21108;-59
2021/01/12 04:15:32;;;;;;;22.80;14.13;;;;;;;0.32;68.04;100047.30;1779326;78;21088;-58
2021/01/12 04:17:59;;;;;;;23.93;13.67;;;;;;;0.31;68.35;100047.73;1804448;78;21012;-58
2021/01/12 04:20:27;;;;;;;22.27;14.00;;;;;;;0.31;68.73;100048.17;1810331;77;21659;-59
2021/01/12 04:22:54;;;;;;;25.97;14.70;;;;;;;0.30;69.09;100054.35;1764566;78;21135;-58
2021/01/12 04:25:21;;;;;;;24.57;14.70;;;;;;;0.28;69.43;100054.34;1786119;78;21138;-58
2021/01/12 04:27:48;;;;;;;21.50;12.77;;;;;;;0.28;69.71;100049.05;1805180;77;22052;-59
2021/01/12 04:30:16;;;;;;;25.13;14.70;;;;;;;0.29;70.09;100051.27;1798722;77;21268;-59
2021/01/12 04:32:43;;;;;;;23.10;13.73;;;;;;;0.26;70.34;100044.64;1800023;77;21016;-60
2021/01/12 04:35:10;;;;;;;25.30;14.83;;;;;;;0.24;70.62;100045.99;1778945;78;21130;-58
2021/01/12 04:37:38;;;;;;;23.40;14.07;;;;;;;0.24;70.92;100043.34;1775375;78;21463;-59
2021/01/12 04:40:06;;;;;;;22.23;14.43;;;;;;;0.23;71.28;100047.31;1778133;78;21685;-58
2021/01/12 04:42:33;;;;;;;23.20;14.73;;;;;;;0.23;71.37;100044.66;1803361;77;21972;-58
2021/01/12 04:45:04;;;;;;;21.90;14.07;;;;;;;0.21;71.62;100051.72;1802436;78;21127;-59
2021/01/12 04:47:31;;;;;;;25.43;14.33;;;;;;;0.21;71.74;100052.60;1801001;77;21270;-58
2021/01/12 04:50:04;;;;;;;23.93;14.20;;;;;;;0.23;71.91;100052.17;1808306;77;21099;-59
2021/01/12 04:52:44;;;;;;;24.03;14.33;;;;;;;0.23;72.08;100048.20;1776826;79;21091;-59
2021/01/12 04:55:20;;;;;;;30.45;21.75;;;;;;;0.29;72.24;100044.64;1851951;75;27798;-58
2021/01/12 04:57:50;;;;;;;28.03;16.47;;;;;;;0.29;72.33;100048.61;1842377;76;21176;-56
2021/01/12 05:00:23;;;;;;;25.20;15.73;;;;;;;0.37;72.51;100042.86;1840410;76;21344;-56
2021/01/12 05:03:03;;;;;;;31.27;17.53;;;;;;;0.35;72.65;100039.32;1843930;76;21047;-57
2021/01/12 05:05:38;;;;;;;31.97;16.27;;;;;;;0.34;72.75;100044.21;1840829;76;21187;-56
2021/01/12 05:08:10;;;;;;;24.77;15.10;;;;;;;0.33;72.97;100037.14;1844443;76;21521;-56
2021/01/12 05:10:43;;;;;;;29.70;17.30;;;;;;;0.30;73.07;100042.00;1841403;76;20948;-57
2021/01/12 05:13:12;;;;;;;26.07;16.67;;;;;;;0.29;73.18;100041.55;1844229;76;21262;-57
2021/01/12 05:15:40;;;;;;;27.20;17.37;;;;;;;0.29;73.30;100039.34;1844964;76;20976;-56
2021/01/12 05:18:10;;;;;;;27.33;17.37;;;;;;;0.29;73.37;100036.70;1840611;76;20972;-56
2021/01/12 05:20:46;;;;;;;25.23;15.13;;;;;;;0.28;73.53;100040.23;1844915;76;21120;-57
2021/01/12 05:23:24;;;;;;;27.90;17.00;;;;;;;0.27;73.59;100039.78;1845472;76;21147;-56
2021/01/12 05:25:53;;;;;;;27.93;17.20;;;;;;;0.26;73.69;100043.31;1843731;76;21286;-59
2021/01/12 05:28:21;;;;;;;26.33;16.13;;;;;;;0.23;73.80;100043.34;1846047;76;21238;-57
2021/01/12 05:30:48;;;;;;;32.07;17.70;;;;;;;0.22;73.92;100044.22;1841588;76;21171;-56
2021/01/12 05:33:18;;;;;;;24.70;16.77;;;;;;;0.20;73.99;100044.22;1841466;76;21744;-57
2021/01/12 05:35:48;;;;;;;26.17;16.07;;;;;;;0.19;74.06;100042.45;1839528;76;21096;-57
2021/01/12 05:38:29;;;;;;;27.90;17.03;;;;;;;0.18;74.13;100042.45;1847139;76;21331;-57
2021/01/12 05:41:00;;;;;;;26.43;16.43;;;;;;;0.16;74.15;100045.13;1841973;76;21181;-57
2021/01/12 05:43:38;;;;;;;26.30;16.90;;;;;;;0.15;74.19;100041.16;1843549;75;21768;-56
2021/01/12 05:46:08;;;;;;;25.60;15.50;;;;;;;0.12;74.29;100038.50;1810380;76;21155;-56
2021/01/12 05:48:39;;;;;;;28.17;16.20;;;;;;;0.09;74.36;100038.05;1840533;75;21440;-57
2021/01/12 05:51:08;;;;;;;27.47;16.03;;;;;;;0.07;74.46;100039.84;1845018;76;22256;-56
2021/01/12 05:53:41;;;;;;;28.50;15.53;;;;;;;0.07;74.46;100048.22;1845253;76;21285;-56
2021/01/12 05:56:08;;;;;;;23.67;14.27;;;;;;;0.07;74.56;100043.81;1795436;76;21501;-57
2021/01/12 05:58:35;;;;;;;25.60;14.90;;;;;;;0.06;74.56;100051.31;1776851;78;21220;-58
2021/01/12 06:01:03;;;;;;;25.53;14.47;;;;;;;0.06;74.58;100039.84;1803973;77;21605;-56
2021/01/12 06:03:32;;;;;;;21.67;12.50;;;;;;;0.06;74.62;100051.75;1807734;77;21662;-56
2021/01/12 06:06:00;;;;;;;23.00;14.93;;;;;;;0.09;74.75;100048.64;1763117;79;21226;-56
2021/01/12 06:08:27;;;;;;;23.50;14.37;;;;;;;0.19;74.47;100053.48;1786179;78;21154;-57
2021/01/12 06:10:55;;;;;;;22.33;13.43;;;;;;;0.25;74.25;100050.84;1789679;78;21182;-57
2021/01/12 06:13:22;;;;;;;19.57;11.63;;;;;;;0.29;74.07;100048.61;1786994;78;21233;-60
2021/01/12 06:15:49;;;;;;;22.50;13.23;;;;;;;0.31;73.88;100053.47;1797063;78;22278;-57
2021/01/12 06:18:17;;;;;;;20.33;12.70;;;;;;;0.28;73.69;100053.02;1771041;78;22003;-56
2021/01/12 06:21:06;;;;;;;19.60;10.87;;;;;;;0.27;73.46;100053.91;1780923;78;21125;-57
2021/01/12 06:23:46;;;;;;;20.37;11.70;;;;;;;0.23;73.26;100048.20;1812768;78;21634;-58
2021/01/12 06:26:14;;;;;;;16.60;9.87;;;;;;;0.21;73.01;100048.63;1788008;78;21219;-58
2021/01/12 06:28:42;;;;;;;20.33;11.40;;;;;;;0.19;72.83;100050.83;1806912;78;21369;-59
2021/01/12 06:31:10;;;;;;;16.87;10.53;;;;;;;0.16;72.68;100046.45;1807451;78;22214;-58
2021/01/12 06:33:38;;;;;;;14.70;9.83;;;;;;;0.15;72.57;100047.33;1806960;78;21207;-59
2021/01/12 06:36:11;;;;;;;16.97;10.37;;;;;;;0.12;72.47;100049.97;1807636;78;21185;-58
2021/01/12 06:38:38;;;;;;;17.50;10.70;;;;;;;0.10;72.46;100051.73;1772267;78;21170;-58
2021/01/12 06:43:45;;;;;;;15.60;10.00;;;;;;;0.12;72.44;100041.14;1867162;75;26929;-58
2021/01/12 06:46:12;;;;;;;16.63;9.83;;;;;;;0.09;72.37;100042.46;1805537;76;21206;-58
2021/01/12 06:48:44;;;;;;;15.03;9.27;;;;;;;0.09;72.32;100042.46;1841223;76;21694;-60
2021/01/12 06:51:13;;;;;;;17.67;10.17;;;;;;;0.09;72.25;100051.28;1836520;76;21058;-58
2021/01/12 06:53:45;;;;;;;16.07;9.50;;;;;;;0.09;72.23;100051.28;1848299;76;21372;-59
2021/01/12 06:56:12;;;;;;;18.13;9.30;;;;;;;0.11;72.06;100041.59;1838506;76;20937;-58
2021/01/12 06:58:45;;;;;;;18.57;10.60;;;;;;;0.10;72.00;100041.14;1800190;78;20957;-59
2021/01/12 07:01:22;;;;;;;15.27;8.70;;;;;;;0.08;71.87;100037.64;1764225;79;21945;-59
2021/01/12 07:03:50;;;;;;;18.00;10.23;;;;;;;0.08;71.84;100037.64;1787229;78;21030;-59
2021/01/12 07:06:25;;;;;;;15.20;8.67;;;;;;;0.08;71.79;100037.64;1760269;78;20944;-57
2021/01/12 07:08:54;;;;;;;14.57;8.43;;;;;;;0.08;71.72;100031.47;1779412;79;21110;-59
2021/01/12 07:11:22;;;;;;;11.13;7.00;;;;;;;0.07;71.60;100030.58;1802845;78;21620;-58
2021/01/12 07:13:52;;;;;;;14.37;7.10;;;;;;;0.07;71.57;100026.61;1804895;78;21213;-58
2021/01/12 07:16:19;;;;;;;15.20;8.67;;;;;;;0.06;71.61;100026.61;1809095;78;21127;-58
2021/01/12 07:18:58;;;;;;;18.13;9.43;;;;;;;0.05;71.61;100024.84;1773086;79;21790;-58
2021/01/12 07:21:31;;;;;;;12.67;7.43;;;;;;;0.04;71.66;100025.72;1809726;78;21407;-59
2021/01/12 07:24:01;;;;;;;13.27;7.73;;;;;;;0.03;71.65;100026.16;1805527;78;21067;-58
2021/01/12 07:26:31;;;;;;;12.03;7.13;;;;;;;0.02;71.62;100021.75;1807310;78;21369;-59
2021/01/12 07:29:06;;;;;;;11.80;6.87;;;;;;;0.02;71.49;100020.86;1807715;78;21955;-59
2021/01/12 07:31:33;;;;;;;13.40;6.70;;;;;;;0.00;71.36;100012.48;1783341;78;21163;-58
2021/01/12 07:34:01;;;;;;;11.00;6.30;;;;;;;-0.01;71.27;100020.02;1780507;79;21132;-58
2021/01/12 07:36:33;;;;;;;11.60;7.10;;;;;;;0.00;71.19;100016.92;1801398;78;21130;-58
2021/01/12 07:39:01;;;;;;;9.47;5.90;;;;;;;0.00;71.05;100011.62;1800370;78;21336;-58
2021/01/12 07:41:28;;;;;;;11.57;7.17;;;;;;;0.00;70.92;100012.48;1783903;78;21119;-58
2021/01/12 07:43:55;;;;;;;12.27;6.87;;;;;;;0.00;70.90;100019.09;1809891;78;21094;-58
2021/01/12 07:46:23;;;;;;;10.50;6.53;;;;;;;0.00;70.89;100009.83;1804609;78;21149;-58
2021/01/12 07:48:51;;;;;;;14.13;7.90;;;;;;;0.00;70.97;100008.51;1785285;79;21607;-59
2021/01/12 07:51:24;;;;;;;11.87;7.20;;;;;;;0.02;71.00;100009.84;1811126;78;21777;-58
2021/01/12 07:53:51;;;;;;;9.80;5.57;;;;;;;0.02;71.04;100004.98;1814869;78;21123;-58
2021/01/12 07:56:19;;;;;;;12.10;6.50;;;;;;;0.02;70.85;100004.55;1807877;78;21214;-59
2021/01/12 07:58:46;;;;;;;11.53;7.03;;;;;;;-0.01;70.88;99997.52;1786792;78;21445;-58
2021/01/12 08:01:13;;;;;;;11.23;6.87;;;;;;;-0.02;70.93;99998.84;1811285;78;21159;-59
2021/01/12 08:03:41;;;;;;;12.83;6.83;;;;;;;-0.02;71.00;100003.69;1813796;78;21608;-58
2021/01/12 08:06:09;;;;;;;11.13;7.63;;;;;;;-0.04;70.93;99994.86;1788984;78;21222;-58
2021/01/12 08:08:36;;;;;;;13.37;7.63;;;;;;;-0.04;70.90;99998.83;1768796;80;21235;-58
2021/01/12 08:11:03;;;;;;;11.07;6.23;;;;;;;-0.04;70.96;99996.62;1778153;79;22456;-58
2021/01/12 08:13:31;;;;;;;11.50;6.67;;;;;;;-0.07;70.89;100002.80;1786270;79;21208;-58
2021/01/12 08:15:58;;;;;;;10.23;6.90;;;;;;;-0.07;70.98;100001.47;1780853;78;22465;-58
2021/01/12 08:18:26;;;;;;;13.33;8.67;;;;;;;-0.08;71.02;100004.11;1779767;78;21524;-58
2021/01/12 08:20:54;;;;;;;12.40;7.07;;;;;;;-0.07;71.05;100007.20;1768840;78;21163;-58
2021/01/12 08:23:21;;;;;;;8.70;6.10;;;;;;;-0.07;71.14;100006.77;1783255;78;21733;-57
2021/01/12 08:25:49;;;;;;;11.23;6.03;;;;;;;-0.08;70.83;100002.34;1782197;78;21214;-58
2021/01/12 08:28:16;;;;;;;9.73;6.53;;;;;;;-0.10;70.81;100008.55;1781440;78;21942;-58
2021/01/12 08:30:44;;;;;;;7.10;3.80;;;;;;;-0.13;70.82;100005.45;1806419;78;21168;-58
2021/01/12 08:33:29;;;;;;;10.93;7.10;;;;;;;-0.13;70.90;99997.96;1810400;78;21576;-58
2021/01/12 08:36:09;;;;;;;9.30;4.87;;;;;;;-0.12;70.91;100003.26;1797483;78;21561;-57
2021/01/12 08:38:41;;;;;;;7.37;4.33;;;;;;;-0.11;70.82;100001.05;1759993;79;21174;-59
2021/01/12 08:41:08;;;;;;;8.40;5.63;;;;;;;-0.11;70.80;100001.50;1790623;78;21011;-58
2021/01/12 08:43:35;;;;;;;13.80;6.43;;;;;;;-0.11;70.77;100001.05;1803172;78;21175;-57
2021/01/12 08:46:06;;;;;;;10.13;6.10;;;;;;;-0.08;70.79;99998.38;1801571;77;22267;-58
2021/01/12 08:48:33;;;;;;;11.47;7.17;;;;;;;-0.07;70.76;99993.53;1784104;78;21195;-57
2021/01/12 08:51:00;;;;;;;11.07;6.33;;;;;;;-0.04;70.88;99993.54;1776150;79;21222;-58
2021/01/12 08:53:29;;;;;;;12.37;6.53;;;;;;;-0.01;70.84;99993.55;1802013;78;21595;-58
2021/01/12 08:56:06;;;;;;;10.37;6.80;;;;;;;0.02;70.69;99991.75;1799926;78;21195;-58
2021/01/12 08:58:37;;;;;;;12.27;7.03;;;;;;;0.03;70.58;99989.55;1803750;78;21191;-58
2021/01/12 09:01:04;;;;;;;11.50;6.53;;;;;;;0.04;70.54;99985.58;1775221;78;21175;-58
2021/01/12 09:03:33;;;;;;;9.87;6.60;;;;;;;0.07;70.47;99990.88;1777839;78;21205;-58
2021/01/12 09:06:01;;;;;;;9.93;6.20;;;;;;;0.08;70.21;99985.15;1769155;79;21656;-58
2021/01/12 09:08:28;;;;;;;13.30;6.27;;;;;;;0.07;70.25;99981.62;1776550;79;21131;-58
2021/01/12 09:10:57;;;;;;;9.67;5.30;;;;;;;0.08;70.24;99980.73;1774830;79;21175;-57
2021/01/12 09:13:26;;;;;;;8.23;5.57;;;;;;;0.11;70.09;99987.77;1729301;78;21652;-58
2021/01/12 09:15:53;;;;;;;7.83;5.23;;;;;;;0.10;70.13;99983.34;1802484;78;21115;-58
2021/01/12 09:18:23;;;;;;;10.50;6.77;;;;;;;0.12;70.16;99974.97;1801860;78;21255;-58
2021/01/12 09:20:56;;;;;;;12.33;6.60;;;;;;;0.13;69.99;99973.65;1778227;78;21382;-58
2021/01/12 09:23:23;;;;;;;12.10;7.20;;;;;;;0.12;69.85;99972.33;1782058;78;21162;-57
2021/01/12 09:25:54;;;;;;;11.63;6.97;;;;;;;0.12;69.90;99974.97;1794915;78;21179;-58
2021/01/12 09:28:31;;;;;;;9.70;4.70;;;;;;;0.14;70.00;99976.73;1802076;78;21178;-58
2021/01/12 09:31:11;;;;;;;11.80;6.43;;;;;;;0.17;69.84;99974.53;1774810;79;21430;-58
2021/01/12 09:33:42;;;;;;;9.60;6.07;;;;;;;0.18;69.66;99963.03;1786500;78;21243;-59
2021/01/12 09:36:14;;;;;;;8.93;5.90;;;;;;;0.18;69.48;99959.06;1804084;78;21555;-58
2021/01/12 09:38:49;;;;;;;9.00;6.10;;;;;;;0.18;69.38;99961.27;1776944;79;21134;-58
2021/01/12 09:41:23;;;;;;;;;;;;;;;0.15;69.25;99949.39;1806115;78;21197;-57
2021/01/12 09:43:52;;;;;;;12.47;5.80;;;;;;;0.15;69.13;99944.53;1778107;78;21383;-59
2021/01/12 09:46:19;;;;;;;8.47;5.30;;;;;;;0.15;69.10;99940.56;1805257;78;21201;-59
2021/01/12 09:48:47;;;;;;;7.87;4.63;;;;;;;0.14;69.00;99929.09;1778519;78;21215;-58
2021/01/12 09:51:14;;;;;;;11.50;6.70;;;;;;;0.15;68.88;99923.36;1773781;78;21191;-59
2021/01/12 09:53:42;;;;;;;15.37;6.63;;;;;;;0.14;68.94;99914.97;1781115;78;21175;-59
2021/01/12 09:56:16;;;;;;;8.23;5.73;;;;;;;0.17;68.95;99912.33;1802802;78;21203;-59
2021/01/12 09:58:44;;;;;;;3.92;2.12;;;;;;;0.21;68.78;99904.35;1802376;78;21529;-58
2021/01/12 10:01:13;;;;;;;10.87;5.00;;;;;;;0.22;68.51;99895.53;1777189;78;21396;-58
2021/01/12 10:03:42;;;;;;;8.20;5.40;;;;;;;0.23;68.33;99893.77;1763785;79;21154;-58
2021/01/12 10:06:21;;;;;;;10.37;5.60;;;;;;;0.24;68.25;99885.81;1801677;78;20960;-59
2021/01/12 10:08:48;;;;;;;9.67;5.20;;;;;;;0.27;68.24;99883.58;1809233;78;21370;-59
2021/01/12 10:11:16;;;;;;;8.10;5.37;;;;;;;0.29;67.98;99874.75;1803558;78;21024;-60
2021/01/12 10:13:46;;;;;;;8.07;4.63;;;;;;;0.30;67.92;99869.89;1768934;79;21119;-59
2021/01/12 10:16:24;;;;;;;11.07;6.37;;;;;;;0.30;67.88;99867.25;1805556;78;21127;-60
2021/01/12 10:18:52;;;;;;;11.00;7.30;;;;;;;0.33;67.94;99867.69;1802127;78;21083;-60
2021/01/12 10:21:19;;;;;;;9.57;5.83;;;;;;;0.35;67.79;99857.50;1778920;78;21377;-59
2021/01/12 10:23:46;;;;;;;11.80;6.13;;;;;;;0.36;67.50;99852.64;1801804;78;21640;-60
2021/01/12 10:26:18;;;;;;;10.13;6.37;;;;;;;0.34;67.21;99851.77;1802770;78;21115;-59
2021/01/12 10:28:47;;;;;;;12.97;6.73;;;;;;;0.32;66.86;99846.06;1801531;78;21530;-61
2021/01/12 10:31:15;;;;;;;9.63;6.03;;;;;;;0.31;66.69;99839.00;1788892;78;21151;-60
2021/01/12 10:33:43;;;;;;;10.33;6.33;;;;;;;0.30;66.57;99830.18;1800008;78;21257;-60
2021/01/12 10:36:14;;;;;;;12.83;7.47;;;;;;;0.32;66.51;99833.70;1804734;78;21154;-60
2021/01/12 10:38:42;;;;;;;11.80;6.67;;;;;;;0.33;66.49;99827.97;1778118;78;21087;-61
2021/01/12 10:41:09;;;;;;;11.70;6.63;;;;;;;0.33;66.33;99830.17;1804296;78;22079;-61
2021/01/12 10:43:37;;;;;;;13.63;8.03;;;;;;;0.33;66.42;99824.88;1790970;78;21745;-60
2021/01/12 10:46:04;;;;;;;12.37;7.30;;;;;;;0.33;66.38;99816.94;1789796;78;22099;-61
2021/01/12 10:48:31;;;;;;;16.23;8.00;;;;;;;0.35;66.42;99811.16;1807396;78;21127;-61
2021/01/12 10:50:58;;;;;;;11.03;7.10;;;;;;;0.35;66.29;99806.31;1791504;78;21086;-60
2021/01/12 10:53:26;;;;;;;15.20;8.13;;;;;;;0.34;66.20;99805.90;1786526;78;21202;-62
2021/01/12 10:55:53;;;;;;;17.67;8.13;;;;;;;0.34;66.27;99804.10;1807559;78;21115;-62
2021/01/12 10:58:21;;;;;;;17.93;9.43;;;;;;;0.33;66.25;99805.02;1782819;80;22241;-62
2021/01/12 11:00:49;;;;;;;16.17;8.97;;;;;;;0.33;66.33;99806.78;1803417;78;21131;-62
2021/01/12 11:03:17;;;;;;;14.37;8.60;;;;;;;0.34;66.35;99808.55;1805156;78;21194;-62
2021/01/12 11:05:44;;;;;;;12.30;6.87;;;;;;;0.34;66.04;99808.55;1808995;77;21036;-61
2021/01/12 11:08:12;;;;;;;12.50;7.27;;;;;;;0.34;65.77;99819.14;1802314;78;21206;-62
2021/01/12 11:10:39;;;;;;;9.97;5.97;;;;;;;0.31;65.70;99805.91;1806606;78;21207;-62
2021/01/12 11:13:08;;;;;;;12.77;6.80;;;;;;;0.32;65.69;99802.37;1804109;77;21162;-61
2021/01/12 11:15:39;;;;;;;12.57;6.60;;;;;;;0.32;65.64;99811.64;1784217;78;21178;-63
2021/01/12 11:18:05;;;;;;;13.23;6.80;;;;;;;0.33;65.46;99808.99;1800329;78;21516;-59
2021/01/12 11:20:33;;;;;;;12.07;7.13;;;;;;;0.32;65.33;99807.67;1771355;80;21187;-62
2021/01/12 11:23:00;;;;;;;9.07;5.30;;;;;;;0.31;65.21;99808.11;1781307;78;21380;-62
2021/01/12 11:25:29;;;;;;;13.37;7.17;;;;;;;0.30;65.16;99803.70;1782695;78;21182;-59
2021/01/12 11:27:56;;;;;;;14.20;6.63;;;;;;;0.30;65.22;99798.84;1782217;78;21510;-61
2021/01/12 11:30:25;;;;;;;10.90;5.67;;;;;;;0.31;65.12;99796.64;1781011;78;21123;-60
2021/01/12 11:32:54;;;;;;;13.20;6.33;;;;;;;0.30;65.10;99798.84;1782733;78;21151;-61
2021/01/12 11:35:23;;;;;;;8.67;5.13;;;;;;;0.28;65.20;99790.03;1803703;78;21963;-60
2021/01/12 11:37:50;;;;;;;12.17;5.63;;;;;;;0.28;65.29;99783.41;1789931;79;21187;-60
2021/01/12 11:40:17;;;;;;;11.50;5.60;;;;;;;0.26;65.40;99780.77;1800287;78;21190;-61
2021/01/12 11:42:45;;;;;;;10.13;4.97;;;;;;;0.26;65.40;99773.27;1812485;78;21178;-61